Time;durP1;ratioP1;P1;durP2;ratioP2;P2;SDS_P1;SDS_P2;PMS_P1;PMS_P2;Temp;Humidity;BMP_temperature;BMP_pressure;BME280_temperature;BME280_humidity;BME280_pressure;Samples;Min_cycle;Max_cycle;Signal;HPM_P1;HPM_P2
2022/09/05 00:02:04;;;;;;;1541.20;969.75;;;13.30;99.90;;;;;;5027926;28;20026;-81
2022/09/05 00:05:05;;;;;;;1999.90;999.90;;;13.30;99.90;;;;;;5028319;28;20112;-81
2022/09/05 00:07:37;;;;;;;1607.43;948.42;;;13.10;99.90;;;;;;5026915;28;20404;-82
2022/09/05 00:10:13;;;;;;;1642.35;932.92;;;13.20;99.90;;;;;;5042091;28;20025;-81
2022/09/05 00:12:40;;;;;;;1999.90;999.90;;;13.10;99.90;;;;;;5036081;28;20084;-81
2022/09/05 00:15:13;;;;;;;1999.90;999.90;;;13.00;99.90;;;;;;5028523;28;20087;-82
2022/09/05 00:17:51;;;;;;;1999.90;999.90;;;13.10;99.90;;;;;;5025852;28;20112;-82
2022/09/05 00:20:26;;;;;;;1999.90;999.90;;;13.10;99.90;;;;;;5027232;28;20033;-82
2022/09/05 00:23:32;;;;;;;1632.13;979.55;;;13.00;99.90;;;;;;5022516;28;20095;-82
2022/09/05 00:26:23;;;;;;;1515.10;862.70;;;12.90;99.90;;;;;;5023992;28;20029;-82
2022/09/05 00:29:10;;;;;;;1428.90;990.45;;;12.70;99.90;;;;;;5026257;28;20076;-82
2022/09/05 00:31:53;;;;;;;1604.78;968.92;;;12.70;99.90;;;;;;5019138;28;20088;-82
2022/09/05 00:34:52;;;;;;;1999.90;999.90;;;12.80;99.90;;;;;;5025149;28;20039;-82
2022/09/05 00:37:30;;;;;;;1508.20;982.92;;;12.70;99.90;;;;;;5026415;28;20025;-82
2022/09/05 00:40:21;;;;;;;1999.90;999.90;;;12.60;99.90;;;;;;5022280;28;20034;-82
2022/09/05 00:42:50;;;;;;;1859.72;970.65;;;12.40;99.90;;;;;;5026968;28;20654;-83
2022/09/05 00:45:35;;;;;;;1999.90;999.90;;;12.50;99.90;;;;;;5029167;28;20053;-82
2022/09/05 00:48:24;;;;;;;1567.18;929.33;;;12.50;99.90;;;;;;5021941;28;20021;-82
2022/09/05 00:51:02;;;;;;;1999.90;999.90;;;12.50;99.90;;;;;;5026438;28;20378;-82
2022/09/05 00:53:49;;;;;;;1999.90;999.90;;;12.40;99.90;;;;;;5028088;28;20768;-83
2022/09/05 00:56:21;;;;;;;1999.90;999.90;;;12.40;99.90;;;;;;5024899;28;20026;-82
2022/09/05 00:59:08;;;;;;;1999.90;999.90;;;12.60;99.90;;;;;;5028745;28;20040;-82
2022/09/05 01:02:27;;;;;;;1999.90;999.90;;;12.60;99.90;;;;;;5023088;28;20116;-83
2022/09/05 01:05:02;;;;;;;1999.90;999.90;;;12.70;99.90;;;;;;4943744;29;20038;-82
2022/09/05 01:07:47;;;;;;;1999.90;999.90;;;12.80;99.90;;;;;;5019273;28;20053;-83
2022/09/05 01:10:41;;;;;;;1999.90;999.90;;;12.80;99.90;;;;;;5026410;28;20052;-82
2022/09/05 01:13:27;;;;;;;1999.90;999.90;;;12.80;99.90;;;;;;5027519;28;20071;-82
2022/09/05 01:16:04;;;;;;;1999.90;999.90;;;12.70;99.90;;;;;;5015032;28;20034;-82
2022/09/05 01:18:52;;;;;;;1999.90;999.90;;;12.70;99.90;;;;;;5029877;28;20091;-82
2022/09/05 01:21:52;;;;;;;1999.90;999.90;;;12.70;99.90;;;;;;5025470;28;20557;-82
2022/09/05 01:24:37;;;;;;;;;;;12.60;99.90;;;;;;5023211;28;20057;-82
2022/09/05 01:27:24;;;;;;;1413.57;937.33;;;12.60;99.90;;;;;;5028669;28;19924;-82
2022/09/05 01:30:10;;;;;;;1999.90;999.90;;;12.60;99.90;;;;;;5020500;28;20056;-82
2022/09/05 01:32:48;;;;;;;1999.90;999.90;;;12.70;99.90;;;;;;5028959;28;20045;-81
2022/09/05 01:35:42;;;;;;;1999.90;999.90;;;12.80;99.90;;;;;;5028365;28;20038;-82
2022/09/05 01:38:22;;;;;;;1439.53;803.30;;;12.70;99.90;;;;;;5024982;28;20104;-82
2022/09/05 01:40:55;;;;;;;;;;;12.70;99.90;;;;;;5019996;28;20049;-82
2022/09/05 01:43:29;;;;;;;1423.88;955.85;;;12.60;99.90;;;;;;5023852;28;19916;-82
2022/09/05 01:46:28;;;;;;;1999.90;999.90;;;12.60;99.90;;;;;;5019868;28;20030;-82
2022/09/05 01:49:23;;;;;;;1542.28;951.20;;;12.60;99.90;;;;;;5023887;28;20025;-82
2022/09/05 01:52:12;;;;;;;1590.32;954.58;;;12.50;99.90;;;;;;5025845;28;20044;-82
2022/09/05 01:54:55;;;;;;;1596.53;970.30;;;12.50;99.90;;;;;;5026498;28;20033;-82
2022/09/05 01:57:48;;;;;;;1999.90;999.90;;;12.40;99.90;;;;;;5020227;28;20025;-81
2022/09/05 02:00:30;;;;;;;1569.97;957.50;;;12.50;99.90;;;;;;5033292;28;20033;-81
2022/09/05 02:03:27;;;;;;;1559.05;974.53;;;12.40;99.90;;;;;;5028781;28;20065;-84
2022/09/05 02:06:11;;;;;;;1547.95;971.20;;;12.30;99.90;;;;;;5033345;28;20072;-81
2022/09/05 02:08:52;;;;;;;1524.75;944.95;;;12.20;99.90;;;;;;5031414;28;20029;-82
2022/09/05 02:11:18;;;;;;;1356.40;910.20;;;12.10;99.90;;;;;;5027575;28;20025;-82
2022/09/05 02:13:59;;;;;;;1999.90;999.90;;;12.10;99.90;;;;;;5030528;28;20049;-82
2022/09/05 02:16:40;;;;;;;1999.90;999.90;;;12.10;99.90;;;;;;5026967;28;20025;-81
2022/09/05 02:19:09;;;;;;;1853.15;976.33;;;12.20;99.90;;;;;;5027033;28;20030;-82
2022/09/05 02:21:40;;;;;;;1999.90;999.90;;;12.20;99.90;;;;;;5027437;28;20025;-82
2022/09/05 02:24:12;;;;;;;1999.90;999.90;;;12.30;99.90;;;;;;5030800;28;20140;-82
2022/09/05 02:27:09;;;;;;;1999.90;999.90;;;12.10;99.90;;;;;;5028450;28;20022;-82
2022/09/05 02:29:56;;;;;;;1999.90;999.90;;;12.10;99.90;;;;;;5015638;28;20494;-81
2022/09/05 02:32:43;;;;;;;1999.90;999.90;;;12.20;99.90;;;;;;5023345;28;20382;-82
2022/09/05 02:35:09;;;;;;;1999.90;999.90;;;12.20;99.90;;;;;;5000202;28;20103;-82
2022/09/05 02:38:00;;;;;;;1999.90;999.90;;;12.20;99.90;;;;;;5030785;28;20477;-82
2022/09/05 02:40:35;;;;;;;1999.90;999.90;;;12.10;99.90;;;;;;5029561;28;20076;-82
2022/09/05 02:43:29;;;;;;;1999.90;999.90;;;12.20;99.90;;;;;;5025701;28;20033;-82
2022/09/05 02:46:15;;;;;;;1999.90;999.90;;;12.20;99.90;;;;;;5021166;28;20075;-82
2022/09/05 02:49:05;;;;;;;1999.90;999.90;;;12.10;99.90;;;;;;5028322;28;20102;-82
2022/09/05 02:51:34;;;;;;;1741.05;949.00;;;12.20;99.90;;;;;;5023984;28;20607;-82
2022/09/05 02:54:05;;;;;;;1999.90;999.90;;;12.10;99.90;;;;;;5024180;28;20556;-82
2022/09/05 02:56:48;;;;;;;1999.90;999.90;;;12.20;99.90;;;;;;5009408;28;20040;-82
2022/09/05 02:59:51;;;;;;;1999.90;999.90;;;12.10;99.90;;;;;;5027600;28;20103;-82
2022/09/05 03:02:42;;;;;;;1999.90;999.90;;;12.10;99.90;;;;;;5026306;28;20512;-82
2022/09/05 03:05:13;;;;;;;1999.90;999.90;;;12.00;99.90;;;;;;5037687;28;20030;-82
2022/09/05 03:07:41;;;;;;;1999.90;999.90;;;12.00;99.90;;;;;;5028879;28;20033;-82
2022/09/05 03:10:28;;;;;;;1999.90;999.90;;;12.00;99.90;;;;;;5029841;28;20022;-82
2022/09/05 03:12:59;;;;;;;1999.90;999.90;;;12.10;99.90;;;;;;5026100;28;20022;-81
2022/09/05 03:16:06;;;;;;;1999.90;999.90;;;12.00;99.90;;;;;;5052819;28;20029;-81
2022/09/05 03:19:07;;;;;;;1999.90;999.90;;;12.00;99.90;;;;;;5015432;28;20113;-82
2022/09/05 03:21:51;;;;;;;1999.90;999.90;;;11.90;99.90;;;;;;5024115;28;20045;-82
2022/09/05 03:24:43;;;;;;;1999.90;999.90;;;11.80;99.90;;;;;;5026230;28;20033;-82
2022/09/05 03:27:20;;;;;;;1999.90;999.90;;;11.80;99.90;;;;;;5032702;28;20036;-82
2022/09/05 03:30:01;;;;;;;1999.90;999.90;;;11.90;99.90;;;;;;5029687;28;20029;-82
2022/09/05 03:32:47;;;;;;;1999.90;999.90;;;11.90;99.90;;;;;;5024769;28;20037;-82
2022/09/05 03:35:32;;;;;;;1999.90;999.90;;;11.90;99.90;;;;;;5025933;28;20497;-82
2022/09/05 03:38:38;;;;;;;1999.90;999.90;;;11.90;99.90;;;;;;5019153;28;20085;-82
2022/09/05 03:41:35;;;;;;;1999.90;999.90;;;11.90;99.90;;;;;;5027057;28;20098;-82
2022/09/05 03:44:22;;;;;;;1999.90;999.90;;;11.90;99.90;;;;;;5022873;28;20057;-82
2022/09/05 03:47:10;;;;;;;1999.90;999.90;;;11.80;99.90;;;;;;5019980;28;20109;-82
2022/09/05 03:50:01;;;;;;;1426.30;955.28;;;11.60;99.90;;;;;;5022201;28;20030;-82
2022/09/05 03:53:04;;;;;;;1999.90;999.90;;;11.60;99.90;;;;;;5019025;28;20424;-82
2022/09/05 03:55:42;;;;;;;1999.90;999.90;;;11.50;99.90;;;;;;5023756;28;20091;-82
2022/09/05 03:58:08;;;;;;;1999.90;999.90;;;11.50;99.90;;;;;;5019898;28;20033;-82
2022/09/05 04:00:36;;;;;;;1999.90;999.90;;;11.70;99.90;;;;;;5026809;28;20500;-82
2022/09/05 04:03:10;;;;;;;1999.90;999.90;;;11.90;99.90;;;;;;5024885;28;20052;-82
2022/09/05 04:05:41;;;;;;;1999.90;999.90;;;12.00;99.90;;;;;;5020835;28;20583;-82
2022/09/05 04:08:34;;;;;;;1999.90;999.90;;;12.20;99.90;;;;;;5024319;28;20029;-82
2022/09/05 04:11:37;;;;;;;1999.90;999.90;;;12.40;99.90;;;;;;5027005;28;20394;-82
2022/09/05 04:14:26;;;;;;;1999.90;999.90;;;12.50;99.90;;;;;;4992660;28;20037;-82
2022/09/05 04:17:09;;;;;;;1999.90;999.90;;;12.60;99.90;;;;;;5018958;28;20424;-82
2022/09/05 04:19:47;;;;;;;1999.90;999.90;;;12.60;99.90;;;;;;5023992;28;20063;-82
2022/09/05 04:22:35;;;;;;;1999.90;999.90;;;12.60;99.90;;;;;;5025274;28;20024;-83
2022/09/05 04:25:26;;;;;;;1999.90;999.90;;;12.50;99.90;;;;;;5023005;28;20030;-83
2022/09/05 04:27:57;;;;;;;1999.90;999.90;;;12.30;99.90;;;;;;5027033;28;20477;-82
2022/09/05 04:30:29;;;;;;;1999.90;999.90;;;12.10;99.90;;;;;;5024110;28;20104;-82
2022/09/05 04:33:03;;;;;;;1999.90;999.90;;;12.00;99.90;;;;;;5017823;28;20030;-82
2022/09/05 04:35:52;;;;;;;1999.90;999.90;;;11.80;99.90;;;;;;5024227;28;20034;-82
2022/09/05 04:38:41;;;;;;;1999.90;999.90;;;11.80;99.90;;;;;;5008468;28;20071;-82
2022/09/05 04:41:16;;;;;;;1999.90;999.90;;;11.80;99.90;;;;;;5023738;28;20050;-82
2022/09/05 04:43:55;;;;;;;1999.90;999.90;;;11.80;99.90;;;;;;5024640;28;20535;-82
2022/09/05 04:46:28;;;;;;;1999.90;999.90;;;11.70;99.90;;;;;;5023691;28;20444;-82
2022/09/05 04:48:57;;;;;;;1999.90;999.90;;;11.70;99.90;;;;;;5025283;28;20504;-82
2022/09/05 04:52:01;;;;;;;1999.90;999.90;;;11.70;99.90;;;;;;5026401;28;20032;-82
2022/09/05 04:54:32;;;;;;;1999.90;999.90;;;11.50;99.90;;;;;;5004665;28;20033;-82
2022/09/05 04:57:16;;;;;;;1999.90;999.90;;;11.70;99.90;;;;;;5018980;28;20456;-82
2022/09/05 05:00:29;;;;;;;1999.90;999.90;;;11.70;99.90;;;;;;5017324;28;20057;-82
2022/09/05 05:02:59;;;;;;;1999.90;999.90;;;11.70;99.90;;;;;;4978429;28;20037;-82
2022/09/05 05:05:48;;;;;;;1819.63;944.92;;;11.80;99.90;;;;;;5019737;28;20030;-82
2022/09/05 05:08:18;;;;;;;1999.90;999.90;;;11.90;99.90;;;;;;5013429;28;20053;-83
2022/09/05 05:11:06;;;;;;;1999.90;999.90;;;11.90;99.90;;;;;;5020445;28;20037;-83
2022/09/05 05:13:54;;;;;;;1999.90;999.90;;;11.80;99.90;;;;;;5015650;28;20068;-83
2022/09/05 05:16:25;;;;;;;1999.90;999.90;;;12.00;99.90;;;;;;5022783;28;20048;-82
2022/09/05 05:19:20;;;;;;;1999.90;999.90;;;12.10;99.90;;;;;;5027145;28;20037;-83
2022/09/05 05:21:51;;;;;;;1999.90;999.90;;;12.10;99.90;;;;;;5010298;28;20160;-84
2022/09/05 05:24:17;;;;;;;;;;;12.20;99.90;;;;;;5037846;28;20037;-83
2022/09/05 05:27:05;;;;;;;1999.90;999.90;;;12.30;99.90;;;;;;5022325;28;19995;-79
2022/09/05 05:29:56;;;;;;;1999.90;999.90;;;12.40;99.90;;;;;;5012559;28;20030;-82
2022/09/05 05:32:27;;;;;;;;;;;12.50;99.90;;;;;;5023698;28;20524;-82
2022/09/05 05:35:08;;;;;;;1367.35;849.92;;;12.60;99.90;;;;;;5029847;28;20319;-82
2022/09/05 05:37:42;;;;;;;1999.90;999.90;;;12.60;99.90;;;;;;5017818;28;20058;-82
2022/09/05 05:40:18;;;;;;;1999.90;999.90;;;12.60;99.90;;;;;;5023933;28;20049;-82
2022/09/05 05:42:44;;;;;;;1999.90;999.90;;;12.60;99.90;;;;;;5028403;28;20034;-82
2022/09/05 05:45:27;;;;;;;1999.90;999.90;;;12.60;99.90;;;;;;5024933;28;20029;-82
2022/09/05 05:48:05;;;;;;;1999.90;999.90;;;12.80;99.90;;;;;;5008682;28;20619;-82
2022/09/05 05:50:51;;;;;;;1999.90;999.90;;;12.70;99.90;;;;;;5027343;28;20378;-82
2022/09/05 05:53:36;;;;;;;1999.90;999.90;;;12.80;99.90;;;;;;5026888;28;20032;-83
2022/09/05 05:56:33;;;;;;;1999.90;999.90;;;12.80;99.90;;;;;;5026501;28;20022;-82
2022/09/05 05:59:07;;;;;;;1999.90;999.90;;;12.80;99.90;;;;;;5016057;28;20070;-81
2022/09/05 06:01:35;;;;;;;1999.90;999.90;;;12.80;99.90;;;;;;5022555;28;20033;-81
2022/09/05 06:04:30;;;;;;;1999.90;999.90;;;12.90;99.90;;;;;;5018617;28;20494;-81
2022/09/05 06:07:21;;;;;;;1999.90;999.90;;;12.90;99.90;;;;;;4957654;28;20437;-81
2022/09/05 06:10:05;;;;;;;1999.90;999.90;;;13.00;99.90;;;;;;5024784;28;20429;-81
2022/09/05 06:12:40;;;;;;;1999.90;999.90;;;13.10;99.90;;;;;;5020773;28;20036;-81
2022/09/05 06:15:08;;;;;;;1999.90;999.90;;;13.10;99.90;;;;;;5024043;28;20370;-81
2022/09/05 06:18:02;;;;;;;1999.90;999.90;;;13.20;99.90;;;;;;5034683;28;20037;-80
2022/09/05 06:20:53;;;;;;;1999.90;999.90;;;13.30;99.90;;;;;;5030887;28;20030;-81
2022/09/05 06:23:33;;;;;;;1999.90;999.90;;;13.40;99.90;;;;;;5024370;28;20520;-81
2022/09/05 06:26:02;;;;;;;;;;;13.40;99.90;;;;;;5021590;28;20409;-81
2022/09/05 06:28:45;;;;;;;1999.90;999.90;;;13.60;99.90;;;;;;5022373;28;19909;-81
2022/09/05 06:31:47;;;;;;;1999.90;999.90;;;13.60;99.90;;;;;;5025107;28;20062;-81
2022/09/05 06:34:40;;;;;;;1999.90;999.90;;;13.70;99.90;;;;;;5024504;28;20428;-81
2022/09/05 06:37:25;;;;;;;1999.90;999.90;;;13.80;99.90;;;;;;5019677;28;20506;-81
2022/09/05 06:40:10;;;;;;;1999.90;999.90;;;14.00;99.90;;;;;;5020430;28;20092;-82
2022/09/05 06:43:04;;;;;;;1999.90;999.90;;;14.00;99.90;;;;;;5021673;28;20029;-81
2022/09/05 06:45:32;;;;;;;1999.90;999.90;;;14.10;99.90;;;;;;5024347;28;20120;-81
2022/09/05 06:48:09;;;;;;;1999.90;999.90;;;14.10;99.90;;;;;;5020603;28;20021;-82
2022/09/05 06:51:04;;;;;;;1999.90;999.90;;;14.20;99.90;;;;;;5021213;28;20545;-81
2022/09/05 06:53:42;;;;;;;1999.90;999.90;;;14.30;99.90;;;;;;5009605;28;20156;-81
2022/09/05 06:56:29;;;;;;;1999.90;999.90;;;14.40;99.90;;;;;;5029873;28;20047;-80
2022/09/05 06:59:17;;;;;;;1999.90;999.90;;;14.50;99.90;;;;;;5026842;28;20063;-81
2022/09/05 07:01:55;;;;;;;1999.90;999.90;;;14.70;99.90;;;;;;5025595;28;20052;-81
2022/09/05 07:04:36;;;;;;;1999.90;999.90;;;14.70;99.90;;;;;;5020923;28;20451;-81
2022/09/05 07:07:13;;;;;;;1999.90;999.90;;;14.80;99.90;;;;;;5042690;28;20021;-81
2022/09/05 07:09:57;;;;;;;1999.90;999.90;;;15.00;99.90;;;;;;5024167;28;20032;-81
2022/09/05 07:12:40;;;;;;;1999.90;999.90;;;15.10;99.90;;;;;;5024548;28;20102;-81
2022/09/05 07:15:43;;;;;;;1999.90;999.90;;;15.10;99.90;;;;;;5019982;28;20033;-81
2022/09/05 07:18:26;;;;;;;1999.90;999.90;;;15.20;99.90;;;;;;4998052;28;20053;-81
2022/09/05 07:21:08;;;;;;;1999.90;999.90;;;15.30;99.90;;;;;;5019643;28;20033;-81
2022/09/05 07:24:00;;;;;;;1999.90;999.90;;;15.50;99.90;;;;;;5029513;28;20060;-81
2022/09/05 07:26:27;;;;;;;1999.90;999.90;;;15.60;99.90;;;;;;5026692;28;20025;-80
2022/09/05 07:28:58;;;;;;;1999.90;999.90;;;15.60;99.90;;;;;;5020585;28;20418;-82
2022/09/05 07:31:29;;;;;;;1999.90;999.90;;;15.80;99.90;;;;;;5027072;28;20033;-79
2022/09/05 07:34:18;;;;;;;1999.90;999.90;;;15.90;99.90;;;;;;5024970;28;20043;-79
2022/09/05 07:36:51;;;;;;;1999.90;999.90;;;16.00;99.90;;;;;;5020833;28;20060;-79
2022/09/05 07:39:21;;;;;;;1999.90;999.90;;;16.20;99.90;;;;;;5022732;28;20033;-83
2022/09/05 07:41:52;;;;;;;1999.90;999.90;;;16.50;99.90;;;;;;5023570;28;20044;-84
2022/09/05 07:44:17;;;;;;;;;;;16.40;99.90;;;;;;5024791;28;20037;-77
2022/09/05 07:46:48;;;;;;;1999.90;999.90;;;16.70;99.90;;;;;;5028551;28;20386;-77
2022/09/05 07:49:22;;;;;;;1657.95;805.10;;;16.70;99.90;;;;;;5009264;28;20076;-77
2022/09/05 07:51:55;;;;;;;1999.90;999.90;;;16.90;99.90;;;;;;5023618;28;20033;-78
2022/09/05 07:54:34;;;;;;;1999.90;999.90;;;16.90;99.90;;;;;;5022914;28;20520;-78
2022/09/05 07:57:03;;;;;;;1999.90;999.90;;;17.10;99.90;;;;;;5025098;28;20060;-78
2022/09/05 07:59:39;;;;;;;1999.90;999.90;;;17.30;99.90;;;;;;5037080;28;20029;-78
2022/09/05 08:02:08;;;;;;;1999.90;999.90;;;17.50;99.90;;;;;;5023158;28;20041;-78
2022/09/05 08:04:38;;;;;;;1999.90;999.90;;;17.60;99.90;;;;;;5025227;28;20420;-78
2022/09/05 08:07:13;;;;;;;1999.90;999.90;;;17.80;99.90;;;;;;5024256;28;20028;-78
2022/09/05 08:09:42;;;;;;;1999.90;999.90;;;18.00;99.90;;;;;;5025327;28;20034;-78
2022/09/05 08:12:19;;;;;;;1999.90;999.90;;;18.00;99.90;;;;;;5020599;28;20709;-78
2022/09/05 08:14:48;;;;;;;1999.90;999.90;;;18.20;99.90;;;;;;5027462;28;20052;-78
2022/09/05 08:17:19;;;;;;;1976.93;968.08;;;18.40;99.90;;;;;;5025200;28;20021;-77
2022/09/05 08:19:56;;;;;;;1999.90;999.90;;;18.70;99.90;;;;;;5027653;28;20033;-78
2022/09/05 08:22:33;;;;;;;1911.15;999.90;;;18.90;99.90;;;;;;5023860;28;20022;-78
2022/09/05 08:25:14;;;;;;;1032.93;931.80;;;19.10;99.90;;;;;;5018278;28;20087;-77
2022/09/05 08:27:48;;;;;;;;;;;19.20;99.90;;;;;;5028098;28;20033;-77
2022/09/05 08:30:14;;;;;;;797.45;737.85;;;19.40;99.90;;;;;;5023206;28;19916;-78
2022/09/05 08:32:57;;;;;;;1050.32;931.95;;;19.50;99.90;;;;;;5028430;28;20108;-77
2022/09/05 08:35:42;;;;;;;874.53;804.75;;;19.70;99.90;;;;;;5017413;28;20072;-77
2022/09/05 08:38:10;;;;;;;1109.68;934.33;;;19.80;99.90;;;;;;5018125;28;20477;-78
2022/09/05 08:41:06;;;;;;;1148.35;884.05;;;20.10;99.90;;;;;;5025934;28;20705;-78
2022/09/05 08:44:06;;;;;;;991.10;897.95;;;20.20;99.90;;;;;;5021436;28;20039;-77
2022/09/05 08:46:43;;;;;;;811.58;744.75;;;20.20;99.90;;;;;;5001364;28;20053;-78
2022/09/05 08:49:11;;;;;;;1126.50;906.38;;;20.50;99.90;;;;;;5013037;28;20505;-77
2022/09/05 08:51:55;;;;;;;928.70;836.03;;;20.60;97.50;;;;;;5015344;28;20048;-78
2022/09/05 08:54:39;;;;;;;470.20;439.52;;;20.80;99.50;;;;;;5019785;28;20117;-77
2022/09/05 08:57:58;;;;;;;479.92;453.38;;;20.90;92.70;;;;;;5020967;28;20033;-77
2022/09/05 09:00:28;;;;;;;300.25;286.25;;;21.20;92.70;;;;;;4952762;28;20050;-78
2022/09/05 09:03:06;;;;;;;287.70;275.98;;;21.20;92.90;;;;;;5014602;28;20046;-77
2022/09/05 09:05:58;;;;;;;396.20;374.42;;;21.40;90.60;;;;;;5026850;28;20037;-77
2022/09/05 09:08:38;;;;;;;340.48;324.38;;;21.30;90.00;;;;;;4991920;28;20042;-77
2022/09/05 09:11:11;;;;;;;303.48;289.02;;;21.40;91.20;;;;;;5010863;28;20021;-77
2022/09/05 09:14:14;;;;;;;808.70;736.50;;;21.50;92.30;;;;;;5023230;28;20028;-77
2022/09/05 09:16:53;;;;;;;172.70;165.90;;;21.80;94.50;;;;;;5026598;28;20580;-77
2022/09/05 09:19:45;;;;;;;243.02;229.23;;;21.90;89.10;;;;;;5022036;28;20553;-77
2022/09/05 09:22:19;;;;;;;253.43;242.68;;;21.80;83.00;;;;;;5017767;28;20044;-82
2022/09/05 09:24:51;;;;;;;163.20;156.15;;;22.00;90.00;;;;;;5018938;28;20030;-82
2022/09/05 09:27:36;;;;;;;248.30;237.88;;;22.00;84.60;;;;;;5019193;28;20028;-81
2022/09/05 09:30:05;;;;;;;330.90;316.55;;;22.10;86.40;;;;;;5019880;28;20036;-82
2022/09/05 09:32:45;;;;;;;246.52;236.85;;;22.10;86.60;;;;;;5025122;28;20030;-82
2022/09/05 09:35:46;;;;;;;462.35;439.20;;;22.50;83.70;;;;;;5023405;28;20116;-81
2022/09/05 09:38:45;;;;;;;161.43;155.05;;;22.80;87.90;;;;;;5025889;28;20029;-82
2022/09/05 09:41:29;;;;;;;204.90;197.07;;;22.70;77.60;;;;;;5022454;28;20069;-82
2022/09/05 09:44:18;;;;;;;184.00;176.52;;;22.90;76.40;;;;;;5028235;28;20119;-81
2022/09/05 09:46:46;;;;;;;177.93;170.90;;;23.00;78.80;;;;;;5016431;28;20034;-82
2022/09/05 09:49:56;;;;;;;223.10;214.45;;;23.30;76.20;;;;;;5016934;28;20147;-82
2022/09/05 09:52:23;;;;;;;179.50;172.65;;;23.50;74.10;;;;;;4984336;28;20121;-81
2022/09/05 09:55:07;;;;;;;204.48;196.52;;;23.60;77.20;;;;;;5019983;28;20079;-82
2022/09/05 09:57:36;;;;;;;350.23;335.40;;;23.80;79.00;;;;;;5017857;28;20026;-82
2022/09/05 10:00:02;;;;;;;293.02;280.73;;;24.00;78.60;;;;;;5015631;28;20426;-82
2022/09/05 10:03:03;;;;;;;180.68;173.77;;;24.20;78.90;;;;;;5020814;28;20025;-81
2022/09/05 10:05:34;;;;;;;149.77;143.95;;;24.20;70.80;;;;;;5016334;28;20465;-81
2022/09/05 10:08:21;;;;;;;186.43;179.30;;;24.50;64.00;;;;;;5023160;28;20022;-82
2022/09/05 10:11:06;;;;;;;144.55;138.75;;;24.60;71.00;;;;;;5021684;28;20036;-81
2022/09/05 10:14:11;;;;;;;283.00;270.35;;;24.40;64.90;;;;;;5020049;28;20033;-81
2022/09/05 10:16:43;;;;;;;170.82;164.20;;;24.10;69.40;;;;;;5026293;28;20045;-82
2022/09/05 10:19:30;;;;;;;147.98;142.23;;;24.50;70.40;;;;;;5026068;28;20068;-82
2022/09/05 10:21:55;;;;;;;166.18;159.77;;;24.80;68.00;;;;;;5019658;28;20113;-80
2022/09/05 10:24:42;;;;;;;181.60;174.48;;;25.00;69.00;;;;;;5026655;28;20433;-81
2022/09/05 10:27:26;;;;;;;169.77;162.93;;;25.40;68.10;;;;;;5016367;28;20516;-81
2022/09/05 10:30:38;;;;;;;168.52;161.55;;;25.30;65.30;;;;;;5023993;28;20052;-80
2022/09/05 10:33:28;;;;;;;106.05;101.22;;;25.00;64.70;;;;;;5017265;28;20030;-81
2022/09/05 10:36:14;;;;;;;141.73;135.75;;;25.00;63.60;;;;;;5015734;28;20106;-81
2022/09/05 10:38:48;;;;;;;142.90;137.05;;;25.40;64.30;;;;;;5024106;28;20390;-84
2022/09/05 10:41:21;;;;;;;176.88;169.68;;;25.50;66.70;;;;;;5023367;28;20567;-83
2022/09/05 10:43:58;;;;;;;93.25;89.20;;;25.50;65.70;;;;;;5029498;28;20041;-84
2022/09/05 10:46:44;;;;;;;104.93;100.28;;;25.90;59.40;;;;;;5023939;28;20706;-84
2022/09/05 10:49:13;;;;;;;177.60;170.65;;;25.70;60.20;;;;;;5006003;28;20046;-84
2022/09/05 10:52:07;;;;;;;70.13;66.90;;;26.30;60.60;;;;;;5020725;28;20029;-83
2022/09/05 10:55:03;;;;;;;73.20;69.88;;;26.80;57.60;;;;;;4987488;28;20094;-84
2022/09/05 10:57:39;;;;;;;49.65;47.17;;;26.70;51.90;;;;;;5019018;28;20041;-84
2022/09/05 11:00:32;;;;;;;59.28;56.72;;;26.80;52.10;;;;;;5012314;28;20034;-85
2022/09/05 11:03:02;;;;;;;38.30;36.55;;;27.20;52.70;;;;;;5015028;28;20046;-82
2022/09/05 11:05:33;;;;;;;;;;;28.00;49.40;;;;;;5008834;28;20515;-81
2022/09/05 11:08:25;;;;;;;46.92;44.90;;;27.50;51.10;;;;;;5008100;28;19909;-85
2022/09/05 11:11:03;;;;;;;63.10;60.35;;;27.60;51.90;;;;;;4991550;28;20030;-82
2022/09/05 11:13:43;;;;;;;56.25;54.00;;;28.10;49.80;;;;;;5014569;28;20030;-81
2022/09/05 11:16:18;;;;;;;63.00;60.55;;;28.10;49.90;;;;;;5007038;28;20099;-82
2022/09/05 11:18:58;;;;;;;68.82;66.03;;;29.10;47.60;;;;;;5010155;28;20076;-81
2022/09/05 11:21:38;;;;;;;71.38;68.47;;;29.50;44.40;;;;;;5010580;28;20397;-82
2022/09/05 11:24:36;;;;;;;81.80;78.68;;;29.20;45.10;;;;;;5019033;28;20033;-82
2022/09/05 11:27:10;;;;;;;75.68;72.82;;;29.50;45.30;;;;;;5002921;28;20044;-79
2022/09/05 11:29:46;;;;;;;84.80;81.40;;;29.60;47.60;;;;;;5017078;28;20036;-79
2022/09/05 11:32:15;;;;;;;80.25;77.20;;;28.80;45.20;;;;;;5018302;28;20083;-79
2022/09/05 11:35:32;;;;;;;77.68;74.55;;;28.80;46.50;;;;;;5018924;28;20421;-79
2022/09/05 11:37:58;;;;;;;115.10;110.78;;;27.90;47.80;;;;;;4957556;28;20405;-78
2022/09/05 11:40:48;;;;;;;165.43;158.95;;;27.10;54.40;;;;;;5023653;28;20041;-84
2022/09/05 11:43:20;;;;;;;186.00;178.82;;;29.10;50.20;;;;;;5024238;28;20663;-80
2022/09/05 11:45:51;;;;;;;163.25;157.05;;;29.50;45.10;;;;;;5023638;28;20057;-79
2022/09/05 11:48:33;;;;;;;79.78;76.72;;;29.50;47.00;;;;;;5014088;28;20627;-79
2022/09/05 11:51:23;;;;;;;107.40;103.30;;;29.80;42.30;;;;;;5018537;28;20071;-77
2022/09/05 11:54:14;;;;;;;79.00;75.90;;;29.50;42.40;;;;;;5037146;28;20025;-77
2022/09/05 11:56:58;;;;;;;101.60;97.82;;;29.90;43.30;;;;;;5019712;28;20029;-78
2022/09/05 11:59:54;;;;;;;111.70;107.60;;;28.80;44.80;;;;;;5025400;28;20029;-78
2022/09/05 12:02:25;;;;;;;86.63;83.20;;;29.50;45.50;;;;;;5019864;28;20044;-78
2022/09/05 12:05:36;;;;;;;74.35;71.55;;;30.40;40.40;;;;;;5023886;28;20037;-78
2022/09/05 12:08:31;;;;;;;91.13;87.72;;;31.10;41.10;;;;;;5000646;28;20041;-78
2022/09/05 12:11:32;;;;;;;107.95;103.72;;;31.30;37.70;;;;;;5028911;28;20118;-78
2022/09/05 12:14:22;;;;;;;65.35;62.88;;;31.20;39.20;;;;;;5016350;28;20041;-78
2022/09/05 12:16:54;;;;;;;93.18;89.43;;;31.20;38.90;;;;;;5037223;28;20437;-78
2022/09/05 12:19:31;;;;;;;80.88;77.70;;;30.00;41.40;;;;;;5019911;28;20029;-78
2022/09/05 12:22:10;;;;;;;93.20;89.65;;;29.70;41.20;;;;;;5020881;28;20033;-78
2022/09/05 12:25:12;;;;;;;98.60;94.93;;;30.60;43.10;;;;;;5018810;28;20033;-78
2022/09/05 12:27:39;;;;;;;79.45;76.50;;;30.40;41.60;;;;;;5018598;28;20536;-79
2022/09/05 12:30:25;;;;;;;88.30;84.88;;;29.90;39.60;;;;;;5020887;28;20028;-79
2022/09/05 12:33:14;;;;;;;111.28;106.82;;;28.90;41.40;;;;;;5016561;28;20484;-79
2022/09/05 12:36:05;;;;;;;133.68;128.55;;;28.70;43.10;;;;;;5021283;28;20105;-80
2022/09/05 12:38:57;;;;;;;91.88;88.40;;;28.30;46.40;;;;;;5010966;28;20026;-79
2022/09/05 12:41:28;;;;;;;108.07;103.72;;;28.40;46.90;;;;;;5032054;28;20037;-79
2022/09/05 12:44:13;;;;;;;94.72;91.03;;;28.50;47.00;;;;;;5023319;28;20033;-79
2022/09/05 12:46:45;;;;;;;177.48;170.88;;;29.50;43.00;;;;;;5018441;28;20128;-79
2022/09/05 12:49:31;;;;;;;101.18;97.20;;;28.70;48.30;;;;;;5010503;28;20034;-79
2022/09/05 12:52:18;;;;;;;113.88;109.38;;;28.60;47.50;;;;;;5020894;28;20092;-79
2022/09/05 12:54:50;;;;;;;94.63;91.05;;;28.60;48.10;;;;;;5023469;28;20048;-78
2022/09/05 12:57:26;;;;;;;107.07;102.63;;;28.90;46.40;;;;;;5015654;28;20401;-79
2022/09/05 12:59:57;;;;;;;161.00;155.15;;;28.10;46.00;;;;;;5019782;28;20552;-79
2022/09/05 13:02:26;;;;;;;100.20;96.13;;;27.80;47.20;;;;;;5025105;28;20237;-78
2022/09/05 13:05:00;;;;;;;122.03;117.38;;;27.80;47.40;;;;;;5019782;28;20038;-79
2022/09/05 13:07:41;;;;;;;96.72;92.97;;;27.70;47.00;;;;;;5016712;28;20026;-79
2022/09/05 13:10:21;;;;;;;162.38;156.10;;;27.60;46.60;;;;;;5007367;28;20057;-79
2022/09/05 13:13:12;;;;;;;98.68;94.85;;;27.40;48.20;;;;;;5022609;28;20033;-78
2022/09/05 13:15:42;;;;;;;70.68;67.20;;;28.20;49.40;;;;;;5025791;28;20045;-78
2022/09/05 13:18:14;;;;;;;125.93;121.13;;;27.80;46.40;;;;;;5023623;28;20091;-78
2022/09/05 13:20:50;;;;;;;149.30;143.70;;;27.90;48.50;;;;;;5015859;28;20057;-78
2022/09/05 13:23:30;;;;;;;228.77;220.27;;;27.90;48.80;;;;;;5027757;28;20033;-78